»·PEaware :: AAL200 KSLC-KEGE

AAL200 :: KSLC-KEGE

FLIGHT INFORMATION

Flight Status: Arrived
Operator:
American Airlines
More flights by this operator :: More flights under this callsign
Pilot: Vimal Ana (13781)
Aircraft: BOEING 757-200
(B752)
More flights by this aircraft type
Origin: KSLC Salt Lake City Intl
United States
Destination: KEGE Eagle Co Regl
United States
More flights between these airports :: More routes between these airports
Route: +LEETZ5 EKR DBL
File this flight plan on PilotEdge
Remarks:
Altitude:
(Current/Filed)
35,000ft
Speed:
(Current/Filed)
400kts
Departed: 10-Jan-17 09:32 PM
Arrived: 10-Jan-17 10:26 PM
Distance/Time
Traveled:
242nm/0:54
Distance/Time
To Go:
Arrived

Flight Plot

Page will automatically refresh every two minutes.

Flight plan parsing failed; only flown route is shown


Map Options




Map Legend


Flown Route
Filed Route
Departure Airport
Arrival Airport
Navaid (VOR, NDB)
Fix

Horizontal Profiles

Position Reports

Time Latitude Longitude Heading Altitude Ground
Speed
10-Jan-17 21:09 40.789235 -111.981623 99 4227ft 0kts
10-Jan-17 21:10 40.789235 -111.981623 99 4227ft 0kts
10-Jan-17 21:11 40.789235 -111.981623 99 4227ft 0kts
10-Jan-17 21:12 40.789235 -111.981623 99 4227ft 0kts
10-Jan-17 21:13 40.789235 -111.981623 99 4227ft 0kts
10-Jan-17 21:14 40.789235 -111.981623 99 4227ft 0kts
10-Jan-17 21:15 40.789235 -111.981623 99 4227ft 0kts
10-Jan-17 21:16 40.789262 -111.982072 68 4227ft 0kts
10-Jan-17 21:17 40.788907 -111.982386 7 4227ft 2kts
10-Jan-17 21:18 40.788697 -111.982441 13 4227ft 0kts
10-Jan-17 21:19 40.788697 -111.982441 13 4227ft 0kts
10-Jan-17 21:20 40.788697 -111.982441 13 4227ft 0kts
10-Jan-17 21:21 40.788697 -111.982441 13 4227ft 0kts
10-Jan-17 21:22 40.788697 -111.982441 13 4227ft 0kts
10-Jan-17 21:23 40.789878 -111.982300 55 4227ft 7kts
10-Jan-17 21:24 40.790344 -111.977403 69 4227ft 13kts
10-Jan-17 21:25 40.794258 -111.977615 355 4227ft 21kts
10-Jan-17 21:26 40.800420 -111.978574 11 4231ft 17kts
10-Jan-17 21:27 40.806900 -111.979006 11 4231ft 20kts
10-Jan-17 21:28 40.806721 -111.976838 173 4231ft 0kts
10-Jan-17 21:29 40.806721 -111.976838 173 4231ft 0kts
10-Jan-17 21:30 40.806721 -111.976838 173 4231ft 0kts
10-Jan-17 21:31 40.806558 -111.976818 174 4231ft 9kts
10-Jan-17 21:32 40.779449 -111.974015 178 5540ft 127kts
10-Jan-17 21:33 40.756594 -112.015933 243 7022ft 213kts
10-Jan-17 21:34 40.777233 -112.091160 308 10084ft 274kts
10-Jan-17 21:35 40.830078 -112.158329 308 13272ft 276kts
10-Jan-17 21:36 40.886587 -112.226906 321 16038ft 307kts
10-Jan-17 21:37 40.973747 -112.238450 4 15997ft 327kts
10-Jan-17 21:38 41.025568 -112.145326 85 16428ft 376kts
10-Jan-17 21:39 41.008866 -112.018758 116 18913ft 376kts
10-Jan-17 21:40 40.967510 -111.901336 129 21064ft 382kts
10-Jan-17 21:41 40.916795 -111.786178 130 22991ft 399kts
10-Jan-17 21:42 40.864265 -111.667132 129 24749ft 417kts
10-Jan-17 21:43 40.822844 -111.527622 112 25609ft 472kts
10-Jan-17 21:44 40.786106 -111.361754 112 26469ft 512kts
10-Jan-17 21:45 40.749459 -111.194037 110 27920ft 529kts
10-Jan-17 21:46 40.709943 -111.013540 112 29270ft 544kts
10-Jan-17 21:47 40.668346 -110.831930 111 30506ft 558kts
10-Jan-17 21:48 40.624062 -110.647040 113 32062ft 561kts
10-Jan-17 21:49 40.580091 -110.465735 111 33490ft 567kts
10-Jan-17 21:50 40.537735 -110.285252 110 34820ft 569kts
10-Jan-17 21:51 40.502419 -110.097978 108 34857ft 567kts
10-Jan-17 21:52 40.465618 -109.906996 107 34866ft 568kts
10-Jan-17 21:53 40.430760 -109.718993 107 34868ft 568kts
10-Jan-17 21:54 40.394453 -109.530709 107 34873ft 567kts
10-Jan-17 21:55 40.357837 -109.343229 108 34874ft 567kts
10-Jan-17 21:56 40.321187 -109.157394 108 34857ft 567kts
10-Jan-17 21:57 40.283927 -108.970269 107 34863ft 568kts
10-Jan-17 21:58 40.246521 -108.783926 107 34870ft 569kts
10-Jan-17 21:59 40.208087 -108.594267 106 34872ft 568kts
10-Jan-17 22:00 40.169305 -108.404701 106 34877ft 569kts
10-Jan-17 22:01 40.131969 -108.226621 107 34860ft 569kts
10-Jan-17 22:02 40.092196 -108.038128 108 34864ft 569kts
10-Jan-17 22:03 40.029159 -107.863020 134 33825ft 556kts
10-Jan-17 22:04 39.941003 -107.713065 136 31827ft 549kts
10-Jan-17 22:05 39.855131 -107.570773 136 29888ft 541kts
10-Jan-17 22:06 39.769831 -107.429850 133 27937ft 532kts
10-Jan-17 22:07 39.719807 -107.267550 101 26008ft 548kts
10-Jan-17 22:08 39.735584 -107.093084 69 24154ft 513kts
10-Jan-17 22:09 39.780007 -106.937659 68 22635ft 493kts
10-Jan-17 22:10 39.823795 -106.791820 68 21775ft 441kts
10-Jan-17 22:11 39.877674 -106.667922 48 19986ft 419kts
10-Jan-17 22:12 39.944932 -106.563524 46 18160ft 401kts
10-Jan-17 22:13 40.030101 -106.520953 340 17007ft 335kts
10-Jan-17 22:14 40.084794 -106.592807 271 16918ft 288kts
10-Jan-17 22:15 40.051198 -106.668845 202 15432ft 282kts
10-Jan-17 22:16 39.979789 -106.655615 173 14867ft 266kts
10-Jan-17 22:17 39.912416 -106.634301 170 14004ft 254kts
10-Jan-17 22:18 39.849634 -106.611885 169 14033ft 245kts
10-Jan-17 22:19 39.787514 -106.606104 198 13720ft 238kts
10-Jan-17 22:20 39.729229 -106.627872 198 12583ft 237kts
10-Jan-17 22:21 39.685992 -106.678968 246 11396ft 219kts
10-Jan-17 22:22 39.667577 -106.741358 251 11084ft 186kts
10-Jan-17 22:23 39.658913 -106.799420 256 10231ft 143kts
10-Jan-17 22:24 39.651254 -106.846427 254 8943ft 134kts
10-Jan-17 22:25 39.645584 -106.888992 260 6927ft 120kts
10-Jan-17 22:26 39.642168 -106.921806 265 6477ft 18kts
10-Jan-17 22:27 39.641774 -106.922730 185 6476ft 1kts
10-Jan-17 22:28 39.641118 -106.922227 77 6479ft 5kts
10-Jan-17 22:29 39.641507 -106.918658 84 6488ft 13kts
10-Jan-17 22:30 39.641814 -106.914591 130 6508ft 9kts
10-Jan-17 22:31 39.640827 -106.914883 177 6510ft 0kts

Navigation Log

Ident Type Via Name
Flight plan parsing failed, navigation log unavailable